Latest Coastal Weather Observations for Rhyll

IDV60701

Issued at 3:41 am EST Tuesday 22 August 2017 (issued every 10 minutes, with the page automatically refreshed every 10 minutes)

About coastal observations | Map of coastal stations | Coastal observations for VIC | Marine services | Other Formats
Station Details ID: 086373 Name: RHYLL Lat: -38.46 Lon: 145.31 Height: 13.4 m
Data from the previous 72 hours. | See also: Recent months at Rhyll
Date/Time
EST
Temp
°C
Wind Pressure Rain since
9am
mm
Weather Cloud Vis
km
Sea
Height
m
Swell
Dir  Spd
kts
Gust
kts
hPa Trend Height
m
Period
s
Dir
22/03:30am 8.3 NNW 4 8 1016.2 - 0.4 - - - - - - -
22/03:00am 8.2 NNW 3 5 1016.3 - 0.4 - - - - - - -
22/02:30am 8.3 NNW 4 7 1016.4 - 0.4 - - - - - - -
22/02:00am 8.2 N 5 6 1016.6 - 0.4 - - - - - - -
22/01:30am 8.3 N 6 8 1016.7 - 0.4 - - - - - - -
22/01:00am 8.5 N 6 8 1016.8 - 0.4 - - - - - - -
22/12:30am 8.7 N 5 6 1016.7 - 0.4 - - - - - - -
22/12:00am 8.3 NE 3 5 1016.8 - 0.4 - - - - - - -
 
Date/Time
EST
Temp
°C
Wind Pressure Rain since
9am
mm
Weather Cloud Vis
km
Sea
Height
m
Swell
Dir  Spd
kts
Gust
kts
hPa Trend Height
m
Period
s
Dir
21/11:30pm 8.7 NE 7 8 1016.6 - 0.4 - - - - - - -
21/11:00pm 8.9 NE 6 7 1016.6 - 0.4 - - - - - - -
21/10:30pm 9.0 NNE 4 6 1016.6 - 0.4 - - - - - - -
21/10:00pm 9.0 NE 7 8 1016.6 - 0.4 - - - - - - -
21/09:30pm 8.9 NE 8 9 1016.6 - 0.4 - - - - - - -
21/09:00pm 8.8 ENE 6 7 1016.5 - 0.4 - - - - - - -
21/08:30pm 8.8 NE 6 8 1016.4 - 0.4 - - - - - - -
21/08:00pm 8.7 NE 5 7 1016.2 - 0.4 - - - - - - -
21/07:30pm 8.5 NE 6 7 1016.1 - 0.4 - - - - - - -
21/07:00pm 8.7 NE 9 10 1015.8 - 0.4 - - - - - - -
21/06:30pm 8.7 NE 9 10 1015.4 - 0.4 - - - - - - -
21/06:00pm 8.8 NE 9 11 1015.0 - 0.4 - - - - - - -
21/05:30pm 9.2 NE 11 13 1014.8 - 0.4 - - - - - - -
21/05:00pm 9.8 NE 8 10 1014.5 - 0.4 - - - - - - -
21/04:30pm 10.2 NNE 7 11 1014.1 - 0.4 - - - - - - -
21/04:00pm 9.7 N 6 9 1014.1 - 0.4 - - - - - - -
21/03:30pm 9.8 N 6 9 1014.2 - 0.4 - - - - - - -
21/03:00pm 9.8 NNE 7 10 1014.5 - 0.4 - - - - - - -
21/02:30pm 8.9 N 9 13 1014.6 - 0.4 - - - - - - -
21/02:00pm 9.1 NNW 9 13 1014.8 - 0.4 - - - - - - -
21/01:30pm 9.0 N 9 14 1015.1 - 0.4 - - - - - - -
21/01:00pm 9.1 NNE 8 12 1015.5 - 0.4 - - - - - - -
21/12:30pm 8.4 NNE 6 8 1015.9 - 0.4 - - - - - - -
21/12:00pm 8.3 NE 5 10 1016.3 - 0.4 Rain - - - - - -
21/11:30am 8.1 NNE 5 9 1016.6 - 0.0 - - - - - - -
21/11:00am 7.9 N 6 9 1016.7 - 0.0 - - - - - - -
21/10:30am 7.8 N 10 15 1016.8 - 0.0 - - - - - - -
21/10:00am 8.6 N 14 17 1017.0 - 0.0 - - - - - - -
21/09:30am 8.2 N 8 11 1017.0 - 0.0 - - - - - - -
21/09:00am 8.3 N 7 11 1017.1 - 0.0 - - - - - - -
21/08:30am 8.3 N 6 9 1017.0 - 0.0 - - - - - - -
21/08:00am 8.0 NE 6 8 1016.9 - 0.0 - - - - - - -
21/07:30am 7.6 NE 6 8 1016.6 - 0.0 - - - - - - -
21/07:00am 7.4 NE 6 8 1016.5 - 0.0 - - - - - - -
21/06:30am 7.3 NE 8 10 1016.2 - 0.0 - - - - - - -
21/06:00am 7.5 NE 9 11 1016.1 - 0.0 - - - - - - -
21/05:30am 7.6 NE 9 11 1016.0 - 0.0 - - - - - - -
21/05:00am 8.1 NE 6 9 1016.0 - 0.0 - - - - - - -
21/04:30am 7.7 NNE 9 11 1016.1 - 0.0 - - - - - - -
21/04:00am 7.4 NE 9 10 1016.4 - 0.0 - - - - - - -
21/03:30am 7.4 NE 8 9 1016.6 - 0.0 - - - - - - -
21/03:00am 7.6 NE 8 9 1017.0 - 0.0 - - - - - - -
21/02:30am 7.6 NE 8 10 1017.4 - 0.0 - - - - - - -
21/02:00am 7.7 NE 8 10 1017.9 - 0.0 - - - - - - -
21/01:30am 7.7 NE 9 11 1018.1 - 0.0 - - - - - - -
21/01:00am 7.5 N 5 7 1018.4 - 0.0 - - - - - - -
21/12:30am 7.6 N 4 5 1018.6 - 0.0 - - - - - - -
21/12:00am 8.2 NE 5 7 1018.8 - 0.0 - - - - - - -
 
Date/Time
EST
Temp
°C
Wind Pressure Rain since
9am
mm
Weather Cloud Vis
km
Sea
Height
m
Swell
Dir  Spd
kts
Gust
kts
hPa Trend Height
m
Period
s
Dir
20/11:30pm 7.4 ENE 6 8 1018.9 - 0.0 - - - - - - -
20/11:00pm 7.6 E 7 8 1018.9 - 0.0 - - - - - - -
20/10:30pm 7.8 E 7 8 1018.9 - 0.0 - - - - - - -
20/10:00pm 7.8 E 8 9 1019.4 - 0.0 - - - - - - -
20/09:30pm 7.6 E 7 8 1019.5 - 0.0 - - - - - - -
20/09:00pm 7.0 E 5 7 1019.8 - 0.0 - - - - - - -
20/08:30pm 7.8 SSE 1 3 1020.0 - 0.0 - - - - - - -
20/08:00pm 6.9 SSE 1 2 1020.1 - 0.0 - - - - - - -
20/07:30pm 7.7 CALM 0 1 1020.2 - 0.0 - - - - - - -
20/07:00pm 8.5 SW 3 3 1020.5 - 0.0 - - - - - - -
20/06:30pm 8.5 SW 2 3 1020.6 - 0.0 - - - - - - -
20/06:00pm 8.0 CALM 0 0 1020.5 - 0.0 - - - - - - -
20/05:30pm 9.3 CALM 0 0 1020.3 - 0.0 - - - - - - -
20/05:00pm 10.5 ESE 2 2 1020.5 - 0.0 - - - - - - -
20/04:30pm 10.9 SE 2 4 1020.6 - 0.0 - - - - - - -
20/04:00pm 11.2 S 1 3 1020.8 - 0.0 - - - - - - -
20/03:30pm 11.5 SE 3 5 1021.2 - 0.0 - - - - - - -
20/03:00pm 13.2 SSE 2 6 1021.6 - 0.0 - - - - - - -
20/02:30pm 12.5 NNW 4 5 1022.2 - 0.0 - - - - - - -
20/02:00pm 12.0 NNW 5 8 1022.5 - 0.0 - - - - - - -
20/01:30pm 11.9 NNW 5 8 1023.0 - 0.0 - - - - - - -
20/01:00pm 11.6 NNW 6 7 1023.5 - 0.0 - - - - - - -
20/12:30pm 13.1 NNE 4 7 1023.9 - 0.0 - - - - - - -
20/12:00pm 12.8 NNE 4 7 1024.5 - 0.0 - - - - - - -
20/11:30am 12.4 NNE 4 7 1025.1 - 0.0 - - - - - - -
20/11:00am 11.2 NNE 5 7 1025.7 - 0.0 - - - - - - -
20/10:30am 9.9 N 7 9 1026.1 - 0.0 - - - - - - -
20/10:00am 9.5 N 9 11 1026.4 - 0.0 - - - - - - -
20/09:30am 9.2 N 8 10 1026.7 - 0.0 - - - - - - -
20/09:00am 8.1 N 8 10 1026.8 - 0.4 - - - - - - -
20/08:30am 8.2 N 4 6 1027.1 - 0.4 - - - - - - -
20/08:00am 7.6 N 2 5 1026.8 - 0.4 - - - - - - -
20/07:30am 7.5 NE 2 4 1026.8 - 0.2 - - - - - - -
20/07:00am 6.8 N 4 7 1026.5 - 0.2 - - - - - - -
20/06:30am 6.9 NE 3 5 1026.4 - 0.2 - - - - - - -
20/06:00am 7.0 NNE 2 4 1026.4 - 0.2 - - - - - - -
20/05:30am 6.9 NNW 3 5 1026.3 - 0.2 - - - - - - -
20/05:00am 6.0 NNE 1 2 1026.1 - 0.2 - - - - - - -
20/04:30am 6.1 CALM 0 1 1026.0 - 0.2 - - - - - - -
20/04:00am 6.8 NW 3 4 1026.0 - 0.2 - - - - - - -
20/03:30am 6.8 N 3 4 1026.1 - 0.2 - - - - - - -
20/03:00am 7.8 NNW 2 3 1026.1 - 0.2 - - - - - - -
20/02:30am 7.4 CALM 0 1 1026.0 - 0.2 - - - - - - -
20/02:00am 7.7 CALM 0 2 1026.1 - 0.2 - - - - - - -
20/01:30am 7.6 SSE 1 2 1026.4 - 0.2 - - - - - - -
20/01:00am 8.3 WNW 3 4 1026.7 - 0.2 - - - - - - -
20/12:30am 8.0 W 2 5 1027.0 - 0.2 - - - - - - -
20/12:00am 7.8 W 3 5 1027.2 - 0.2 - - - - - - -
 
Date/Time
EST
Temp
°C
Wind Pressure Rain since
9am
mm
Weather Cloud Vis
km
Sea
Height
m
Swell
Dir  Spd
kts
Gust
kts
hPa Trend Height
m
Period
s
Dir
19/11:30pm 7.0 CALM 0 1 1027.0 - 0.2 - - - - - - -
19/11:00pm 8.0 SW 3 4 1027.1 - 0.2 - - - - - - -
19/10:30pm 8.0 SW 4 5 1027.2 - 0.2 - - - - - - -
19/10:00pm 7.5 W 3 3 1027.0 - 0.2 - - - - - - -
19/09:30pm 7.5 W 2 3 1027.1 - 0.2 - - - - - - -
19/09:00pm 8.0 W 2 4 1027.1 - 0.2 - - - - - - -
19/08:30pm 8.8 S 5 8 1027.1 - 0.2 - - - - - - -
19/08:00pm 9.0 S 4 7 1026.9 - 0.2 - - - - - - -
19/07:30pm 9.2 SW 5 7 1026.9 - 0.2 - - - - - - -
19/07:00pm 8.7 WSW 3 4 1027.1 - 0.2 - - - - - - -
19/06:30pm 8.8 SW 4 5 1027.1 - 0.2 - - - - - - -
19/06:00pm 9.0 WSW 4 6 1026.9 - 0.2 - - - - - - -
19/05:30pm 9.8 SSW 5 10 1026.8 - 0.2 - - - - - - -
19/05:00pm 10.4 S 6 11 1026.6 - 0.2 - - - - - - -
19/04:30pm 10.3 SSW 4 9 1026.3 - 0.2 - - - - - - -
19/04:00pm 10.9 SSW 6 9 1026.3 - 0.2 - - - - - - -
19/03:30pm 10.9 SSW 3 8 1026.3 - 0.2 - - - - - - -
19/03:00pm 9.9 S 5 9 1026.5 - 0.2 - - - - - - -
19/02:30pm 11.6 SSW 5 9 1026.4 - 0.2 - - - - - - -
19/02:00pm 10.5 SW 4 7 1026.4 - 0.2 - - - - - - -
19/01:30pm 10.4 SSW 8 15 1026.3 - 0.2 - - - - - - -
19/01:00pm 13.6 S 6 9 1026.2 - 0.2 - - - - - - -
19/12:30pm 11.0 S 7 17 1025.9 - 0.2 - - - - - - -
19/12:00pm 12.6 S 5 9 1026.1 - 0.2 - - - - - - -
19/11:30am 12.0 S 7 14 1026.3 - 0.2 - - - - - - -
19/11:00am 11.1 S 8 11 1026.2 - 0.2 - - - - - - -
19/10:30am 11.4 S 8 12 1026.2 - 0.2 - - - - - - -
19/10:00am 10.0 S 9 13 1025.8 - 0.2 - - - - - - -
19/09:30am 8.8 S 6 9 1025.6 - 0.2 - - - - - - -
19/09:00am 7.9 SSW 10 17 1025.5 - 15.2 Recent precip. - - - - - -
19/08:30am 8.1 SW 5 7 1024.9 - 14.8 - - - - - - -
19/08:00am 8.1 S 8 13 1024.5 - 14.6 - - - - - - -
19/07:30am 7.7 SSW 4 7 1023.9 - 14.4 - - - - - - -
19/07:00am 6.9 WSW 5 10 1023.5 - 14.4 - - - - - - -
19/06:30am 8.3 SSW 5 9 1022.8 - 14.2 - - - - - - -
19/06:00am 7.8 S 5 14 1022.5 - 14.2 Recent precip. - - - - - -
19/05:30am 7.5 S 12 19 1022.2 - 14.2 - - - - - - -
19/05:00am 8.2 SSW 5 9 1021.6 - 14.0 - - - - - - -
19/04:30am 8.6 SSW 6 16 1021.3 - 14.0 - - - - - - -
19/04:00am 7.5 S 6 10 1021.0 - 14.0 - - - - - - -

Other Formats:

Comma delimited format used in spreadsheet applications
http://www.bom.gov.au/fwo/IDV60701/IDV60701.94892.axf

JavaScript Object Notation format (JSON) in row-major order
http://www.bom.gov.au/fwo/IDV60701/IDV60701.94892.json